createdAt,value
2023-08-15T00:02:13.085Z,42.32
2023-08-15T00:04:39.983Z,42.43
2023-08-15T00:07:07.373Z,42.40
2023-08-15T00:09:34.433Z,41.99
2023-08-15T00:12:01.482Z,42.05
2023-08-15T00:14:28.497Z,41.90
2023-08-15T00:16:55.585Z,42.17
2023-08-15T00:19:22.656Z,41.76
2023-08-15T00:21:49.533Z,41.84
2023-08-15T00:24:16.500Z,41.89
2023-08-15T00:26:43.425Z,41.67
2023-08-15T00:29:10.912Z,41.71
2023-08-15T00:31:37.848Z,41.86
2023-08-15T00:34:04.874Z,41.75
2023-08-15T00:36:32.080Z,42.08
2023-08-15T00:39:03.552Z,41.65
2023-08-15T00:41:31.192Z,41.74
2023-08-15T00:43:59.715Z,41.94
2023-08-15T00:46:29.457Z,42.02
2023-08-15T00:48:57.143Z,42.30
2023-08-15T00:51:24.402Z,42.42
2023-08-15T00:53:52.516Z,42.25
2023-08-15T00:56:21.580Z,42.14
2023-08-15T00:58:48.759Z,42.21
2023-08-15T01:01:18.914Z,42.28
2023-08-15T01:03:48.078Z,42.23
2023-08-15T01:06:16.610Z,42.07
2023-08-15T01:08:43.664Z,42.25
2023-08-15T01:11:11.138Z,42.13
2023-08-15T01:14:01.586Z,42.34
2023-08-15T01:16:37.833Z,42.34
2023-08-15T01:19:31.287Z,42.41
2023-08-15T01:22:00.344Z,42.38
2023-08-15T01:24:28.057Z,42.56
2023-08-15T01:26:54.970Z,42.70
2023-08-15T01:29:21.909Z,43.33
2023-08-15T01:32:01.683Z,44.89
2023-08-15T01:34:38.895Z,46.00
2023-08-15T01:37:12.111Z,46.94
2023-08-15T01:39:41.948Z,47.63
2023-08-15T01:42:12.006Z,48.18
2023-08-15T01:44:39.179Z,49.51
2023-08-15T01:47:07.190Z,50.26
2023-08-15T01:49:34.087Z,50.38
2023-08-15T01:52:01.175Z,50.57
2023-08-15T01:54:28.714Z,51.51
2023-08-15T01:56:57.605Z,52.53
2023-08-15T01:59:24.777Z,53.42
2023-08-15T02:01:51.888Z,54.18
2023-08-15T02:04:18.791Z,54.76
2023-08-15T02:06:45.757Z,54.91
2023-08-15T02:09:12.785Z,54.96
2023-08-15T02:11:39.799Z,55.39
2023-08-15T02:14:06.800Z,55.66
2023-08-15T02:16:33.724Z,55.66
2023-08-15T02:19:00.661Z,54.76
2023-08-15T02:21:27.629Z,55.14
2023-08-15T02:23:54.798Z,54.91
2023-08-15T02:26:21.891Z,55.61
2023-08-15T02:28:48.828Z,56.14
2023-08-15T02:31:15.773Z,56.63
2023-08-15T02:33:42.775Z,57.05
2023-08-15T02:36:09.846Z,57.19
2023-08-15T02:38:38.183Z,57.04
2023-08-15T02:41:06.535Z,56.97
2023-08-15T02:43:33.506Z,57.25
2023-08-15T02:46:00.492Z,57.55
2023-08-15T02:48:27.531Z,56.91
2023-08-15T02:50:54.526Z,56.45
2023-08-15T02:53:21.455Z,55.95
2023-08-15T02:55:52.255Z,55.38
2023-08-15T02:58:19.508Z,55.11
2023-08-15T03:00:46.819Z,54.78
2023-08-15T03:03:15.456Z,54.83
2023-08-15T03:05:42.486Z,55.09
2023-08-15T03:08:09.518Z,54.70
2023-08-15T03:10:39.878Z,54.42
2023-08-15T03:13:06.816Z,54.74
2023-08-15T03:15:33.815Z,55.45
2023-08-15T03:18:00.950Z,55.70
2023-08-15T03:20:31.015Z,56.15
2023-08-15T03:22:58.022Z,57.04
2023-08-15T03:25:25.068Z,57.70
2023-08-15T03:27:52.113Z,55.98
2023-08-15T03:30:19.716Z,55.50
2023-08-15T03:32:47.009Z,54.04
2023-08-15T03:35:13.985Z,52.91
2023-08-15T03:37:42.058Z,50.53
2023-08-15T03:40:10.028Z,49.68
2023-08-15T03:42:37.013Z,49.11
2023-08-15T03:45:06.757Z,48.36
2023-08-15T03:47:33.733Z,47.80
2023-08-15T03:50:01.047Z,48.99
2023-08-15T03:52:28.187Z,49.08
2023-08-15T03:54:55.190Z,48.91
2023-08-15T03:57:23.201Z,47.97
2023-08-15T03:59:50.294Z,46.98
2023-08-15T04:02:18.550Z,46.67
2023-08-15T04:04:45.484Z,47.29
2023-08-15T04:07:12.389Z,47.32
2023-08-15T04:09:39.293Z,47.12
2023-08-15T04:12:07.027Z,47.31
2023-08-15T04:14:34.035Z,47.00
2023-08-15T04:17:01.046Z,46.58
2023-08-15T04:19:28.040Z,46.30
2023-08-15T04:21:55.032Z,46.36
2023-08-15T04:24:22.022Z,46.01
2023-08-15T04:26:49.227Z,45.29
2023-08-15T04:29:16.202Z,45.23
2023-08-15T04:31:43.177Z,44.88
2023-08-15T04:34:10.130Z,45.68
2023-08-15T04:36:38.561Z,46.79
2023-08-15T04:39:06.602Z,47.23
2023-08-15T04:41:34.228Z,47.83
2023-08-15T04:44:02.906Z,48.38
2023-08-15T04:46:30.005Z,47.85
2023-08-15T04:48:56.996Z,47.00
2023-08-15T04:51:23.989Z,46.69
2023-08-15T04:53:51.187Z,47.85
2023-08-15T04:56:19.621Z,48.96
2023-08-15T04:58:46.610Z,48.98
2023-08-15T05:01:13.671Z,48.05
2023-08-15T05:03:43.350Z,47.91
2023-08-15T05:06:10.343Z,47.27
2023-08-15T05:08:57.554Z,46.25
2023-08-15T05:12:26.323Z,45.75
2023-08-15T05:15:07.284Z,45.66
2023-08-15T05:17:34.590Z,45.49
2023-08-15T05:20:02.285Z,45.29
2023-08-15T05:22:32.552Z,45.30
2023-08-15T05:25:00.032Z,45.88
2023-08-15T05:27:28.354Z,49.33
2023-08-15T05:29:56.974Z,50.27
2023-08-15T05:32:24.354Z,49.56
2023-08-15T05:34:51.395Z,48.87
2023-08-15T05:37:19.944Z,49.41
2023-08-15T05:39:47.930Z,49.26
2023-08-15T05:42:18.999Z,49.64
2023-08-15T05:44:47.160Z,49.40
2023-08-15T05:47:14.623Z,49.27
2023-08-15T05:49:43.342Z,49.14
2023-08-15T05:52:10.595Z,49.34
2023-08-15T05:54:37.849Z,49.00
2023-08-15T05:57:05.664Z,49.23
2023-08-15T05:59:32.715Z,48.79
2023-08-15T06:02:00.688Z,48.76
2023-08-15T06:04:28.328Z,48.84
2023-08-15T06:06:55.361Z,49.16
2023-08-15T06:09:22.443Z,49.85
2023-08-15T06:11:51.411Z,50.66
2023-08-15T06:14:21.624Z,50.42
2023-08-15T06:16:49.529Z,50.37
2023-08-15T06:19:17.286Z,50.49
2023-08-15T06:21:44.497Z,50.49
2023-08-15T06:24:13.349Z,50.68
2023-08-15T06:26:42.233Z,50.67
2023-08-15T06:29:09.837Z,53.28
2023-08-15T06:31:37.395Z,55.82
2023-08-15T06:34:04.981Z,55.55
2023-08-15T06:36:32.811Z,55.11
2023-08-15T06:39:00.159Z,53.90
2023-08-15T06:41:27.379Z,52.82
2023-08-15T06:43:56.343Z,52.47
2023-08-15T06:46:26.573Z,52.08
2023-08-15T06:48:53.538Z,51.51
2023-08-15T06:51:20.800Z,50.94
2023-08-15T06:53:50.956Z,50.79
2023-08-15T06:56:18.349Z,50.87
2023-08-15T06:58:45.400Z,51.05
2023-08-15T07:01:13.969Z,51.21
2023-08-15T07:03:41.118Z,51.16
2023-08-15T07:06:08.261Z,50.99
2023-08-15T07:08:35.357Z,50.93
2023-08-15T07:11:04.005Z,50.79
2023-08-15T07:13:32.422Z,50.90
2023-08-15T07:15:59.524Z,50.84
2023-08-15T07:18:26.729Z,50.66
2023-08-15T07:20:54.447Z,50.61
2023-08-15T07:23:21.879Z,50.80
2023-08-15T07:25:49.285Z,50.66
2023-08-15T07:28:16.470Z,51.43
2023-08-15T07:30:47.404Z,51.03
2023-08-15T07:33:15.381Z,50.88
2023-08-15T07:35:43.487Z,50.53
2023-08-15T07:38:10.610Z,50.00
2023-08-15T07:40:38.232Z,49.86
2023-08-15T07:43:05.398Z,49.68
2023-08-15T07:45:32.701Z,49.82
2023-08-15T07:47:59.959Z,49.34
2023-08-15T07:50:29.870Z,50.12
2023-08-15T07:52:59.628Z,50.64
2023-08-15T07:55:33.197Z,51.53
2023-08-15T07:58:00.892Z,52.12
2023-08-15T08:00:27.933Z,52.09
2023-08-15T08:02:54.968Z,51.12
2023-08-15T08:05:23.365Z,51.41
2023-08-15T08:07:50.869Z,51.35
2023-08-15T08:10:18.073Z,51.10
2023-08-15T08:12:47.360Z,51.68
2023-08-15T08:15:14.768Z,52.48
2023-08-15T08:17:41.985Z,51.88
2023-08-15T08:20:18.762Z,51.83
2023-08-15T08:22:45.714Z,51.96
2023-08-15T08:25:20.657Z,52.43
2023-08-15T08:27:48.182Z,54.55
2023-08-15T08:30:17.833Z,54.95
2023-08-15T08:32:45.360Z,54.19
2023-08-15T08:35:12.881Z,53.40
2023-08-15T08:37:40.176Z,55.25
2023-08-15T08:40:08.453Z,54.44
2023-08-15T08:42:36.141Z,54.31
2023-08-15T08:45:04.380Z,54.39
2023-08-15T08:47:34.477Z,53.51
2023-08-15T08:50:02.281Z,53.85
2023-08-15T08:52:29.841Z,54.39
2023-08-15T08:54:57.787Z,53.75
2023-08-15T08:57:30.976Z,54.45
2023-08-15T08:59:59.771Z,54.65
2023-08-15T09:02:27.596Z,54.38
2023-08-15T09:04:56.931Z,52.87
2023-08-15T09:07:24.441Z,51.70
2023-08-15T09:09:51.664Z,50.94
2023-08-15T09:12:35.352Z,51.19
2023-08-15T09:15:02.652Z,49.26
2023-08-15T09:17:30.125Z,48.32
2023-08-15T09:19:57.149Z,47.60
2023-08-15T09:22:25.971Z,46.10
2023-08-15T09:24:53.144Z,45.46
2023-08-15T09:27:20.523Z,47.32
2023-08-15T09:29:48.211Z,48.42
2023-08-15T09:32:15.173Z,47.35
2023-08-15T09:34:42.150Z,46.38
2023-08-15T09:37:10.047Z,45.77
2023-08-15T09:39:39.247Z,45.64
2023-08-15T09:42:06.787Z,45.54
2023-08-15T09:44:35.941Z,45.60
2023-08-15T09:47:03.745Z,46.93
2023-08-15T09:49:31.273Z,47.65
2023-08-15T09:52:02.267Z,47.47
2023-08-15T09:54:31.609Z,47.03
2023-08-15T09:56:58.897Z,46.81
2023-08-15T09:59:26.323Z,46.32
2023-08-15T10:01:56.462Z,45.45
2023-08-15T10:04:26.942Z,44.25
2023-08-15T10:06:53.921Z,43.23
2023-08-15T10:09:21.174Z,44.23
2023-08-15T10:11:48.965Z,43.93
2023-08-15T10:14:19.919Z,43.49
2023-08-15T10:16:47.903Z,42.79
2023-08-15T10:19:18.933Z,42.29
2023-08-15T10:21:51.683Z,42.14
2023-08-15T10:24:19.303Z,41.84
2023-08-15T10:26:47.543Z,42.48
2023-08-15T10:29:14.690Z,42.55
2023-08-15T10:31:42.377Z,42.68
2023-08-15T10:34:11.506Z,42.10
2023-08-15T10:36:43.371Z,42.64
2023-08-15T10:39:11.010Z,42.56
2023-08-15T10:41:38.293Z,42.57
2023-08-15T10:44:07.320Z,42.91
2023-08-15T10:46:36.666Z,42.87
2023-08-15T10:49:09.262Z,43.15
2023-08-15T10:51:42.358Z,43.58
2023-08-15T10:54:15.143Z,42.99
2023-08-15T10:56:43.467Z,43.08
2023-08-15T10:59:16.119Z,43.51
2023-08-15T11:01:46.836Z,43.22
2023-08-15T11:04:16.416Z,43.51
2023-08-15T11:06:49.003Z,43.93
2023-08-15T11:09:17.561Z,44.48
2023-08-15T11:11:49.864Z,44.30
2023-08-15T11:14:18.937Z,43.96
2023-08-15T11:16:47.604Z,43.95
2023-08-15T11:19:19.422Z,44.07
2023-08-15T11:21:47.681Z,44.14
2023-08-15T11:24:15.122Z,44.11
2023-08-15T11:26:42.556Z,44.43
2023-08-15T11:29:12.610Z,45.38
2023-08-15T11:31:40.087Z,44.96
2023-08-15T11:34:07.971Z,44.26
2023-08-15T11:36:34.923Z,44.48
2023-08-15T11:39:02.296Z,45.31
2023-08-15T11:41:29.630Z,45.15
2023-08-15T11:43:57.420Z,45.12
2023-08-15T11:46:26.981Z,45.41
2023-08-15T11:48:55.893Z,44.75
2023-08-15T11:51:23.228Z,45.24
2023-08-15T11:53:54.317Z,45.30
2023-08-15T11:56:22.893Z,45.31
2023-08-15T11:58:50.219Z,45.75
2023-08-15T12:01:18.362Z,46.21
2023-08-15T12:03:45.672Z,46.62
2023-08-15T12:06:16.026Z,47.01
2023-08-15T12:08:46.118Z,47.70
2023-08-15T12:11:13.612Z,47.86
2023-08-15T12:13:42.389Z,47.78
2023-08-15T12:16:10.878Z,47.36
2023-08-15T12:18:40.452Z,46.74
2023-08-15T12:21:13.704Z,45.71
2023-08-15T12:23:41.509Z,45.51
2023-08-15T12:26:08.846Z,45.02
2023-08-15T12:28:36.091Z,45.47
2023-08-15T12:31:03.488Z,45.97
2023-08-15T12:33:41.410Z,46.22
2023-08-15T12:36:15.475Z,46.14
2023-08-15T12:38:43.911Z,45.95
2023-08-15T12:41:11.399Z,46.23
2023-08-15T12:43:57.832Z,46.58
2023-08-15T12:46:24.885Z,47.53
2023-08-15T12:48:51.942Z,47.69
2023-08-15T12:51:19.403Z,47.73
2023-08-15T12:53:46.518Z,47.45
2023-08-15T12:56:13.611Z,47.44
2023-08-15T12:58:40.649Z,47.78
2023-08-15T13:01:07.786Z,47.32
2023-08-15T13:03:34.840Z,47.71
2023-08-15T13:06:01.843Z,47.81
2023-08-15T13:08:28.813Z,48.15
2023-08-15T13:10:58.287Z,48.54
2023-08-15T13:13:25.655Z,48.61
2023-08-15T13:15:52.925Z,48.44
2023-08-15T13:18:19.916Z,48.31
2023-08-15T13:20:47.223Z,48.64
2023-08-15T13:23:14.362Z,49.37
2023-08-15T13:25:41.414Z,49.56
2023-08-15T13:28:08.712Z,49.94
2023-08-15T13:30:36.303Z,49.98
2023-08-15T13:33:03.605Z,49.67
2023-08-15T13:35:31.776Z,49.90
2023-08-15T13:37:58.975Z,50.48
2023-08-15T13:40:26.014Z,50.75
2023-08-15T13:42:53.052Z,50.52
2023-08-15T13:45:20.474Z,50.60
2023-08-15T13:47:47.534Z,51.08
2023-08-15T13:50:15.140Z,51.13
2023-08-15T13:52:42.094Z,50.71
2023-08-15T13:55:09.671Z,51.44
2023-08-15T13:57:36.719Z,51.52
2023-08-15T14:00:04.409Z,52.04
2023-08-15T14:02:34.534Z,52.51
2023-08-15T14:05:04.221Z,52.53
2023-08-15T14:07:31.307Z,52.06
2023-08-15T14:09:58.287Z,51.88
2023-08-15T14:12:27.436Z,51.83
2023-08-15T14:14:57.221Z,51.64
2023-08-15T14:17:24.534Z,51.24
2023-08-15T14:19:51.401Z,51.38
2023-08-15T14:22:18.363Z,51.09
2023-08-15T14:24:48.673Z,51.08
2023-08-15T14:27:17.701Z,50.76
2023-08-15T14:29:46.593Z,50.33
2023-08-15T14:32:13.839Z,49.51
2023-08-15T14:34:40.835Z,49.94
2023-08-15T14:37:07.840Z,50.04
2023-08-15T14:39:34.778Z,49.71
2023-08-15T14:42:01.722Z,49.21
2023-08-15T14:44:29.359Z,48.21
2023-08-15T14:46:56.425Z,48.28
2023-08-15T14:49:23.571Z,47.80
2023-08-15T14:51:50.523Z,46.98
2023-08-15T14:54:18.540Z,45.52
2023-08-15T14:56:45.769Z,44.76
2023-08-15T14:59:13.056Z,44.35
2023-08-15T15:01:40.097Z,42.95
2023-08-15T15:04:07.764Z,42.33
2023-08-15T15:06:36.060Z,41.62
2023-08-15T15:09:04.255Z,41.13
2023-08-15T15:11:31.311Z,40.55
2023-08-15T15:13:58.548Z,40.00
2023-08-15T15:16:25.774Z,39.85
2023-08-15T15:18:52.944Z,39.07
2023-08-15T15:21:20.073Z,38.02
2023-08-15T15:23:47.197Z,37.66
2023-08-15T15:26:14.456Z,37.97
2023-08-15T15:28:41.549Z,37.57
2023-08-15T15:31:08.606Z,37.39
2023-08-15T15:33:35.672Z,36.85
2023-08-15T15:36:02.872Z,37.27
2023-08-15T15:38:29.875Z,37.46
2023-08-15T15:40:56.873Z,36.77
2023-08-15T15:43:23.879Z,36.90
2023-08-15T15:45:50.911Z,36.66
2023-08-15T15:48:18.123Z,36.63
2023-08-15T15:50:45.582Z,36.52
2023-08-15T15:53:13.360Z,36.47
2023-08-15T15:55:40.366Z,36.16
2023-08-15T15:58:07.377Z,35.22
2023-08-15T16:00:34.585Z,34.82
2023-08-15T16:03:01.658Z,33.89
2023-08-15T16:05:28.658Z,32.13
2023-08-15T16:07:56.071Z,30.99
2023-08-15T16:10:23.107Z,29.52
2023-08-15T16:12:51.782Z,29.53
2023-08-15T16:15:19.926Z,28.44
2023-08-15T16:17:47.504Z,27.84
2023-08-15T16:20:14.706Z,27.82
2023-08-15T16:22:42.633Z,27.47
2023-08-15T16:25:09.997Z,27.70
2023-08-15T16:27:37.067Z,28.06
2023-08-15T16:30:16.232Z,28.45
2023-08-15T16:32:46.878Z,28.21
2023-08-15T16:35:14.583Z,28.39
2023-08-15T16:37:41.927Z,28.25
2023-08-15T16:40:09.650Z,28.64
2023-08-15T16:42:36.744Z,29.14
2023-08-15T16:45:04.554Z,29.47
2023-08-15T16:47:31.601Z,29.39
2023-08-15T16:49:58.904Z,30.44
2023-08-15T16:52:25.908Z,31.02
2023-08-15T16:54:53.183Z,31.95
2023-08-15T16:57:21.871Z,32.82
2023-08-15T16:59:48.941Z,34.15
2023-08-15T17:02:16.095Z,35.15
2023-08-15T17:04:43.138Z,36.40
2023-08-15T17:07:10.285Z,36.92
2023-08-15T17:09:37.289Z,38.14
2023-08-15T17:12:04.788Z,38.73
2023-08-15T17:14:31.882Z,39.84
2023-08-15T17:16:59.501Z,39.89
2023-08-15T17:19:27.523Z,40.67
2023-08-15T17:21:54.782Z,41.05
2023-08-15T17:24:21.848Z,41.79
2023-08-15T17:26:49.096Z,42.65
2023-08-15T17:29:16.467Z,42.99
2023-08-15T17:31:43.631Z,43.70
2023-08-15T17:34:10.648Z,44.24
2023-08-15T17:36:37.733Z,45.02
2023-08-15T17:39:05.174Z,45.58
2023-08-15T17:41:32.923Z,46.45
2023-08-15T17:44:00.049Z,47.47
2023-08-15T17:46:27.297Z,48.40
2023-08-15T17:48:54.320Z,49.01
2023-08-15T17:51:21.384Z,49.62
2023-08-15T17:53:48.958Z,50.05
2023-08-15T17:56:16.374Z,50.38
2023-08-15T17:58:50.780Z,50.60
2023-08-15T18:01:18.443Z,50.50
2023-08-15T18:03:47.098Z,51.15
2023-08-15T18:06:15.012Z,51.83
2023-08-15T18:08:42.825Z,52.21
2023-08-15T18:11:10.364Z,52.91
2023-08-15T18:13:37.923Z,54.27
2023-08-15T18:16:05.378Z,54.87
2023-08-15T18:18:32.389Z,56.20
2023-08-15T18:20:59.398Z,56.86
2023-08-15T18:23:26.618Z,57.57
2023-08-15T18:25:53.795Z,57.83
2023-08-15T18:28:20.772Z,57.68
2023-08-15T18:30:47.791Z,57.55
2023-08-15T18:33:15.605Z,57.81
2023-08-15T18:35:43.766Z,57.90
2023-08-15T18:38:10.780Z,58.37
2023-08-15T18:40:41.081Z,58.83
2023-08-15T18:43:09.517Z,59.05
2023-08-15T18:45:43.844Z,59.35
2023-08-15T18:48:11.879Z,59.81
2023-08-15T18:50:43.359Z,59.97
2023-08-15T18:53:10.517Z,60.32
2023-08-15T18:55:37.773Z,60.32
2023-08-15T18:58:05.069Z,60.79
2023-08-15T19:00:31.921Z,61.51
2023-08-15T19:02:59.140Z,62.43
2023-08-15T19:05:26.502Z,63.62
2023-08-15T19:07:53.550Z,65.96
2023-08-15T19:10:21.138Z,65.65
2023-08-15T19:12:48.267Z,65.71
2023-08-15T19:15:19.574Z,66.76
2023-08-15T19:17:50.401Z,67.70
2023-08-15T19:20:19.099Z,68.15
2023-08-15T19:22:46.199Z,68.21
2023-08-15T19:25:13.278Z,69.62
2023-08-15T19:27:40.726Z,71.65
2023-08-15T19:30:08.594Z,73.57
2023-08-15T19:32:35.716Z,75.58
2023-08-15T19:35:04.707Z,78.25
2023-08-15T19:37:38.080Z,79.21
2023-08-15T19:40:08.379Z,82.55
2023-08-15T19:42:46.943Z,87.69
2023-08-15T19:45:14.943Z,87.43
2023-08-15T19:47:42.563Z,90.03
2023-08-15T19:50:11.572Z,93.99
2023-08-15T19:52:38.751Z,95.73
2023-08-15T19:55:06.068Z,97.53
2023-08-15T19:57:33.376Z,97.74
2023-08-15T20:00:00.693Z,97.63
2023-08-15T20:02:28.226Z,96.16
2023-08-15T20:04:55.442Z,97.02
2023-08-15T20:07:22.744Z,98.11
2023-08-15T20:10:04.011Z,98.01
2023-08-15T20:12:36.866Z,98.90
2023-08-15T20:15:04.390Z,97.74
2023-08-15T20:17:32.001Z,100.00
2023-08-15T20:19:59.490Z,100.00
2023-08-15T20:22:26.951Z,100.00
2023-08-15T20:24:54.853Z,100.00
2023-08-15T20:27:22.204Z,100.00
2023-08-15T20:29:51.798Z,100.00
2023-08-15T20:32:18.925Z,100.00
2023-08-15T20:34:46.012Z,100.00
2023-08-15T20:37:12.990Z,100.00
2023-08-15T20:39:40.025Z,100.00
2023-08-15T20:42:07.065Z,100.00
2023-08-15T20:44:34.040Z,100.00
2023-08-15T20:47:01.055Z,100.00
2023-08-15T20:49:28.348Z,100.00
2023-08-15T20:51:55.361Z,100.00
2023-08-15T20:54:22.326Z,100.00
2023-08-15T20:56:49.406Z,100.00
2023-08-15T20:59:16.370Z,100.00
2023-08-15T21:01:43.344Z,100.00
2023-08-15T21:04:10.310Z,100.00
2023-08-15T21:06:37.323Z,100.00
2023-08-15T21:09:04.554Z,100.00
2023-08-15T21:11:31.528Z,100.00
2023-08-15T21:13:59.109Z,100.00
2023-08-15T21:16:26.115Z,100.00
2023-08-15T21:18:53.042Z,100.00
2023-08-15T21:21:20.101Z,100.00
2023-08-15T21:23:47.187Z,100.00
2023-08-15T21:26:14.142Z,100.00
2023-08-15T21:28:41.143Z,100.00
2023-08-15T21:31:08.141Z,100.00
2023-08-15T21:33:35.142Z,100.00
2023-08-15T21:36:03.646Z,100.00
2023-08-15T21:38:30.605Z,100.00
2023-08-15T21:40:57.571Z,100.00
2023-08-15T21:43:24.874Z,100.00
2023-08-15T21:45:51.931Z,100.00
2023-08-15T21:48:19.860Z,100.00
2023-08-15T21:50:47.031Z,100.00
2023-08-15T21:53:13.973Z,100.00
2023-08-15T21:55:40.989Z,100.00
2023-08-15T21:58:10.948Z,100.00
2023-08-15T22:00:37.899Z,100.00
2023-08-15T22:03:06.007Z,100.00
2023-08-15T22:05:32.972Z,100.00
2023-08-15T22:08:00.053Z,100.00
2023-08-15T22:10:27.873Z,100.00
2023-08-15T22:12:55.543Z,100.00
2023-08-15T22:15:22.616Z,100.00
2023-08-15T22:17:54.799Z,100.00
2023-08-15T22:20:31.727Z,100.00
2023-08-15T22:22:58.633Z,100.00
2023-08-15T22:25:25.673Z,100.00
2023-08-15T22:27:53.223Z,100.00
2023-08-15T22:30:20.229Z,100.00
2023-08-15T22:32:47.240Z,100.00
2023-08-15T22:35:14.171Z,100.00
2023-08-15T22:37:41.165Z,100.00
2023-08-15T22:40:08.917Z,100.00
2023-08-15T22:42:35.882Z,100.00
2023-08-15T22:45:02.906Z,100.00
2023-08-15T22:47:29.880Z,100.00
2023-08-15T22:49:56.892Z,100.00
2023-08-15T22:52:23.877Z,100.00
2023-08-15T22:54:51.029Z,100.00
2023-08-15T22:57:17.962Z,100.00
2023-08-15T22:59:44.884Z,100.00
2023-08-15T23:02:11.872Z,100.00
2023-08-15T23:04:38.891Z,100.00
2023-08-15T23:07:05.873Z,100.00
2023-08-15T23:09:32.922Z,100.00
2023-08-15T23:11:59.897Z,100.00
2023-08-15T23:14:26.810Z,100.00
2023-08-15T23:16:53.764Z,100.00
2023-08-15T23:19:20.688Z,100.00
2023-08-15T23:21:47.655Z,100.00
2023-08-15T23:24:14.616Z,100.00
2023-08-15T23:26:41.567Z,100.00
2023-08-15T23:29:08.652Z,100.00
2023-08-15T23:31:39.127Z,100.00
2023-08-15T23:34:07.183Z,100.00
2023-08-15T23:36:34.408Z,100.00
2023-08-15T23:39:02.444Z,100.00
2023-08-15T23:41:29.767Z,100.00
2023-08-15T23:43:56.866Z,100.00
2023-08-15T23:46:24.599Z,100.00
2023-08-15T23:48:54.746Z,100.00
2023-08-15T23:51:22.209Z,100.00
2023-08-15T23:53:49.190Z,100.00
2023-08-15T23:56:16.331Z,100.00
2023-08-15T23:58:43.540Z,100.00
